Time;durP1;ratioP1;P1;durP2;ratioP2;P2;SDS_P1;SDS_P2;PMS_P1;PMS_P2;Temp;Humidity;BMP_temperature;BMP_pressure;BME280_temperature;BME280_humidity;BME280_pressure;Samples;Min_cycle;Max_cycle;Signal;HPM_P1;HPM_P2
2024/02/05 00:00:52;;;;;;;;;;;11.40;99.90;;;;;;6739138;88;20069;-76
2024/02/05 00:10:53;;;;;;;;;;;11.50;99.90;;;;;;6740223;88;20141;-75
2024/02/05 00:20:53;;;;;;;;;;;11.50;99.90;;;;;;6735641;88;20084;-75
2024/02/05 00:30:54;;;;;;;;;;;11.50;99.90;;;;;;6740514;88;20094;-75
2024/02/05 00:40:54;;;;;;;;;;;11.60;99.90;;;;;;6737054;88;20569;-76
2024/02/05 00:50:55;;;;;;;;;;;11.50;99.90;;;;;;6733899;88;20072;-75
2024/02/05 01:00:55;;;;;;;;;;;11.60;99.90;;;;;;6744810;88;20062;-75
2024/02/05 01:10:59;;;;;;;;;;;11.60;99.90;;;;;;6738903;88;20099;-75
2024/02/05 01:20:59;;;;;;;;;;;11.60;99.90;;;;;;6736587;88;20132;-74
2024/02/05 01:31:00;;;;;;;;;;;11.70;99.90;;;;;;6735186;88;20065;-75
2024/02/05 01:41:00;;;;;;;;;;;11.60;99.90;;;;;;6735687;88;20095;-75
2024/02/05 01:51:01;;;;;;;;;;;11.60;99.90;;;;;;6733450;88;20529;-75
2024/02/05 02:01:01;;;;;;;;;;;11.50;99.90;;;;;;6726199;88;20656;-75
2024/02/05 02:11:03;;;;;;;;;;;11.60;99.90;;;;;;6729681;88;20667;-75
2024/02/05 02:21:06;;;;;;;;;;;11.50;99.90;;;;;;6734431;88;20072;-75
2024/02/05 02:31:07;;;;;;;;;;;11.50;99.90;;;;;;6740116;88;20054;-75
2024/02/05 02:41:10;;;;;;;;;;;11.50;99.90;;;;;;6735198;88;20213;-75
2024/02/05 02:51:11;;;;;;;;;;;11.50;99.90;;;;;;6739201;88;20201;-75
2024/02/05 03:01:12;;;;;;;;;;;11.40;99.90;;;;;;6743376;88;20045;-75
2024/02/05 03:11:12;;;;;;;;;;;11.40;99.90;;;;;;6744741;88;20194;-75
2024/02/05 03:21:12;;;;;;;;;;;11.30;99.90;;;;;;6740277;88;20178;-76
2024/02/05 03:31:13;;;;;;;;;;;11.30;99.90;;;;;;6732861;88;20160;-75
2024/02/05 03:41:13;;;;;;;;;;;11.30;99.90;;;;;;6731827;88;20083;-75
2024/02/05 03:51:14;;;;;;;;;;;11.30;99.90;;;;;;6736507;88;20113;-75
2024/02/05 04:01:14;;;;;;;;;;;11.20;99.90;;;;;;6730581;88;20070;-75
2024/02/05 04:11:15;;;;;;;;;;;11.10;99.90;;;;;;6737227;88;20096;-75
2024/02/05 04:21:15;;;;;;;;;;;11.20;99.90;;;;;;6736701;88;20078;-75
2024/02/05 04:31:15;;;;;;;;;;;11.20;99.90;;;;;;6737551;88;20170;-75
2024/02/05 04:41:16;;;;;;;;;;;11.10;99.90;;;;;;6739312;88;20046;-75
2024/02/05 04:51:16;;;;;;;;;;;11.10;99.90;;;;;;6739371;88;20624;-75
2024/02/05 05:01:17;;;;;;;;;;;11.10;99.90;;;;;;6733467;88;20076;-75
2024/02/05 05:11:24;;;;;;;;;;;11.00;99.90;;;;;;6735559;88;20065;-75
2024/02/05 05:32:26;;;;;;;;;;;11.00;99.90;;;;;;6724296;88;20068;-80
2024/02/05 05:42:26;;;;;;;;;;;10.90;99.90;;;;;;6700040;88;20085;-78
2024/02/05 05:52:27;;;;;;;;;;;11.00;99.90;;;;;;6761985;87;20091;-79
2024/02/05 06:02:28;;;;;;;;;;;10.90;99.90;;;;;;6764899;87;20282;-78
2024/02/05 06:12:28;;;;;;;;;;;10.90;99.90;;;;;;6767988;87;20049;-79
2024/02/05 06:22:55;;;;;;;;;;;10.80;99.90;;;;;;6756446;87;20057;-78
2024/02/05 06:32:56;;;;;;;;;;;10.80;99.90;;;;;;6765730;87;20113;-78
2024/02/05 06:42:56;;;;;;;;;;;10.70;99.90;;;;;;6763597;87;20065;-77
2024/02/05 06:52:57;;;;;;;;;;;10.70;99.90;;;;;;6762951;87;20144;-78
2024/02/05 07:02:57;;;;;;;;;;;10.50;99.90;;;;;;6754890;87;20635;-78
2024/02/05 07:12:58;;;;;;;;;;;10.50;99.90;;;;;;6748895;88;20043;-80
2024/02/05 07:22:58;;;;;;;;;;;10.40;99.90;;;;;;6750828;87;20086;-79
2024/02/05 07:32:58;;;;;;;;;;;10.50;99.90;;;;;;6751174;87;20120;-78
2024/02/05 07:42:59;;;;;;;;;;;10.50;99.90;;;;;;6754366;87;20576;-78
2024/02/05 07:52:59;;;;;;;;;;;10.30;99.90;;;;;;6746812;87;20045;-78
2024/02/05 08:03:00;;;;;;;;;;;10.40;99.90;;;;;;6740568;87;20044;-77
2024/02/05 08:13:00;;;;;;;;;;;10.40;99.90;;;;;;6760895;87;20122;-78
2024/02/05 08:23:01;;;;;;;;;;;10.20;99.90;;;;;;6751421;87;20493;-77
2024/02/05 08:33:01;;;;;;;;;;;10.40;99.90;;;;;;6772900;87;20056;-78
2024/02/05 08:43:02;;;;;;;;;;;10.80;99.90;;;;;;6744022;88;20068;-78
2024/02/05 08:53:03;;;;;;;;;;;11.30;99.90;;;;;;6747837;88;20059;-78
2024/02/05 09:03:03;;;;;;;;;;;12.00;99.90;;;;;;6753159;88;20186;-78
2024/02/05 09:13:04;;;;;;;;;;;12.60;99.90;;;;;;6748536;88;20045;-79
2024/02/05 09:23:05;;;;;;;;;;;13.40;99.90;;;;;;6748020;88;20062;-78
2024/02/05 09:33:08;;;;;;;;;;;14.40;99.90;;;;;;6749741;87;20187;-77
2024/02/05 09:43:09;;;;;;;;;;;14.80;99.90;;;;;;6744613;88;20054;-78
2024/02/05 09:53:10;;;;;;;;;;;14.90;99.90;;;;;;6746635;88;20051;-78
2024/02/05 10:03:11;;;;;;;;;;;14.70;99.90;;;;;;6743511;88;20078;-78
2024/02/05 10:13:13;;;;;;;;;;;15.20;99.90;;;;;;6743487;88;20062;-78
2024/02/05 10:23:13;;;;;;;;;;;16.10;99.90;;;;;;6739973;88;20074;-78
2024/02/05 10:33:15;;;;;;;;;;;16.20;99.90;;;;;;6739126;88;20206;-77
2024/02/05 10:43:15;;;;;;;;;;;16.60;99.90;;;;;;6748328;88;20073;-78
2024/02/05 10:53:17;;;;;;;;;;;17.80;99.90;;;;;;6737209;87;20224;-78
2024/02/05 11:03:19;;;;;;;;;;;17.40;99.90;;;;;;6733260;88;20116;-78
2024/02/05 11:13:24;;;;;;;;;;;17.10;99.90;;;;;;6734357;88;20042;-77
2024/02/05 11:23:26;;;;;;;;;;;17.40;99.90;;;;;;6726990;77;20058;-78
2024/02/05 11:33:29;;;;;;;;;;;17.10;99.90;;;;;;6722172;88;20067;-79
2024/02/05 11:43:30;;;;;;;;;;;17.50;99.90;;;;;;6717290;88;20209;-75
2024/02/05 11:53:31;;;;;;;;;;;17.60;99.90;;;;;;6715167;88;20128;-78
2024/02/05 12:03:31;;;;;;;;;;;17.70;99.90;;;;;;6715842;88;20215;-76
2024/02/05 12:13:34;;;;;;;;;;;18.10;99.90;;;;;;6715384;88;20532;-77
2024/02/05 12:23:35;;;;;;;;;;;17.60;99.90;;;;;;6717218;88;20082;-76
2024/02/05 12:33:35;;;;;;;;;;;17.40;99.90;;;;;;6717292;88;20061;-76
2024/02/05 12:43:36;;;;;;;;;;;17.90;99.90;;;;;;6716323;88;20100;-76
2024/02/05 12:53:39;;;;;;;;;;;18.30;99.80;;;;;;6716954;88;20054;-77
2024/02/05 13:03:39;;;;;;;;;;;18.70;99.40;;;;;;6714756;88;20555;-76
2024/02/05 13:13:39;;;;;;;;;;;19.20;98.60;;;;;;6724145;88;20062;-75
2024/02/05 13:23:40;;;;;;;;;;;19.00;98.80;;;;;;6715375;88;20054;-76
2024/02/05 13:33:40;;;;;;;;;;;19.70;97.90;;;;;;6715222;88;20071;-76
2024/02/05 13:43:41;;;;;;;;;;;19.00;98.30;;;;;;6716963;88;20062;-75
2024/02/05 13:53:41;;;;;;;;;;;18.80;98.50;;;;;;6715643;88;20120;-74
2024/02/05 14:03:42;;;;;;;;;;;20.10;97.50;;;;;;6721736;88;20083;-79
2024/02/05 14:13:42;;;;;;;;;;;20.00;97.60;;;;;;6717019;88;20123;-77
2024/02/05 14:23:43;;;;;;;;;;;18.30;99.10;;;;;;6715466;88;20567;-74
2024/02/05 14:33:43;;;;;;;;;;;18.40;99.20;;;;;;6715162;88;20063;-74
2024/02/05 14:43:44;;;;;;;;;;;18.30;99.60;;;;;;6717260;88;20544;-75
2024/02/05 14:53:44;;;;;;;;;;;17.90;99.40;;;;;;6722227;88;20058;-76
2024/02/05 15:03:46;;;;;;;;;;;17.00;99.90;;;;;;6720264;88;20054;-75
2024/02/05 15:13:49;;;;;;;;;;;15.80;99.90;;;;;;6714471;88;20486;-75
2024/02/05 15:23:49;;;;;;;;;;;15.10;99.90;;;;;;6714392;88;20047;-75
2024/02/05 15:33:50;;;;;;;;;;;14.80;99.90;;;;;;6713473;88;20077;-75
2024/02/05 15:43:50;;;;;;;;;;;13.60;99.90;;;;;;6715275;88;20073;-75
2024/02/05 15:53:51;;;;;;;;;;;13.10;99.90;;;;;;6722237;88;20102;-75
2024/02/05 16:03:51;;;;;;;;;;;12.30;99.90;;;;;;6727668;88;20050;-74
2024/02/05 16:13:52;;;;;;;;;;;11.70;99.90;;;;;;6728155;88;20055;-75
2024/02/05 16:23:53;;;;;;;;;;;11.30;99.90;;;;;;6712672;88;20101;-75
2024/02/05 16:33:53;;;;;;;;;;;11.10;99.90;;;;;;6714590;88;20571;-77
2024/02/05 16:43:54;;;;;;;;;;;10.80;99.90;;;;;;6718325;88;20204;-74
2024/02/05 16:53:54;;;;;;;;;;;10.60;99.90;;;;;;6718444;88;20075;-74
2024/02/05 17:03:55;;;;;;;;;;;10.40;99.90;;;;;;6715179;88;20517;-75
2024/02/05 17:13:55;;;;;;;;;;;10.10;99.90;;;;;;6716541;88;20190;-77
2024/02/05 17:23:56;;;;;;;;;;;9.90;99.90;;;;;;6728809;77;20059;-77
2024/02/05 17:33:56;;;;;;;;;;;9.70;99.90;;;;;;6723710;88;20230;-78
2024/02/05 17:44:03;;;;;;;;;;;9.40;99.90;;;;;;6721413;88;20565;-77
2024/02/05 17:54:03;;;;;;;;;;;9.30;99.90;;;;;;6719632;88;20184;-76
2024/02/05 18:04:04;;;;;;;;;;;9.30;99.90;;;;;;6729103;88;20112;-79
2024/02/05 18:14:05;;;;;;;;;;;9.20;99.90;;;;;;6720255;88;20578;-79
2024/02/05 18:24:06;;;;;;;;;;;9.00;99.90;;;;;;6736409;88;20331;-80
2024/02/05 18:34:07;;;;;;;;;;;8.90;99.90;;;;;;6727347;88;20079;-78
2024/02/05 18:44:07;;;;;;;;;;;8.80;99.90;;;;;;6738392;88;20061;-78
2024/02/05 18:54:08;;;;;;;;;;;8.50;99.90;;;;;;6743028;88;20050;-77
2024/02/05 19:04:08;;;;;;;;;;;8.20;99.90;;;;;;6744722;88;20080;-78
2024/02/05 19:14:08;;;;;;;;;;;8.20;99.90;;;;;;6734379;88;20172;-77
2024/02/05 19:24:12;;;;;;;;;;;8.00;99.90;;;;;;6735563;88;20570;-78
2024/02/05 19:34:13;;;;;;;;;;;7.90;99.90;;;;;;6739754;88;20077;-78
2024/02/05 19:44:14;;;;;;;;;;;7.90;99.90;;;;;;6745625;88;20533;-80
2024/02/05 19:54:14;;;;;;;;;;;7.90;99.90;;;;;;6743383;87;20144;-80
2024/02/05 20:04:15;;;;;;;;;;;8.10;99.90;;;;;;6747327;87;20650;-78
2024/02/05 20:14:15;;;;;;;;;;;8.20;99.90;;;;;;6744247;88;20079;-79
2024/02/05 20:24:16;;;;;;;;;;;8.20;99.90;;;;;;6735963;88;20062;-79
2024/02/05 20:34:16;;;;;;;;;;;8.30;99.90;;;;;;6745731;88;20061;-80
2024/02/05 20:44:18;;;;;;;;;;;8.30;99.90;;;;;;6752042;88;20059;-80
2024/02/05 20:54:18;;;;;;;;;;;8.40;99.90;;;;;;6754417;88;20070;-79
2024/02/05 21:04:18;;;;;;;;;;;8.40;99.90;;;;;;6746169;88;20097;-79
2024/02/05 21:14:19;;;;;;;;;;;8.50;99.90;;;;;;6744575;88;20051;-79
2024/02/05 21:24:19;;;;;;;;;;;8.50;99.90;;;;;;6743144;88;20131;-76
2024/02/05 21:34:20;;;;;;;;;;;8.50;99.90;;;;;;6740973;88;20160;-80
2024/02/05 21:44:20;;;;;;;;;;;8.60;99.90;;;;;;6743540;88;20173;-79
2024/02/05 21:54:22;;;;;;;;;;;8.60;99.90;;;;;;6740038;88;20093;-79
2024/02/05 22:04:22;;;;;;;;;;;8.70;99.90;;;;;;6743823;88;20127;-79
2024/02/05 22:14:22;;;;;;;;;;;8.80;99.90;;;;;;6750037;88;20082;-78
2024/02/05 22:24:23;;;;;;;;;;;8.90;99.90;;;;;;6765538;87;20085;-78
2024/02/05 22:34:23;;;;;;;;;;;9.00;99.90;;;;;;6756175;88;20606;-78
2024/02/05 22:44:24;;;;;;;;;;;9.00;99.90;;;;;;6756779;88;20152;-77
2024/02/05 22:54:25;;;;;;;;;;;9.10;99.90;;;;;;6756737;87;20065;-78
2024/02/05 23:04:25;;;;;;;;;;;9.10;99.90;;;;;;6758550;88;20071;-79
2024/02/05 23:14:25;;;;;;;;;;;9.20;99.90;;;;;;6758135;87;20211;-78
2024/02/05 23:24:26;;;;;;;;;;;9.20;99.90;;;;;;6747088;77;20071;-76
2024/02/05 23:34:27;;;;;;;;;;;9.20;99.90;;;;;;6739879;88;20038;-77
2024/02/05 23:44:27;;;;;;;;;;;9.30;99.90;;;;;;6740081;87;20572;-76
2024/02/05 23:54:27;;;;;;;;;;;9.40;99.90;;;;;;6741954;87;20535;-75
